Time;durP1;ratioP1;P1;durP2;ratioP2;P2;SDS_P1;SDS_P2;PMS_P1;PMS_P2;Temp;Humidity;BMP_temperature;BMP_pressure;BME280_temperature;BME280_humidity;BME280_pressure;Samples;Min_cycle;Max_cycle;Signal;HPM_P1;HPM_P2
2021/11/27 00:02:16;;;;;;;7.10;1.20;;;;;;;6.38;77.79;98520.19;5045323;28;20047;-77
2021/11/27 00:04:41;;;;;;;3.65;1.30;;;;;;;6.39;77.60;98513.28;5037197;28;20040;-77
2021/11/27 00:07:07;;;;;;;5.95;1.50;;;;;;;6.40;77.87;98515.00;5064122;28;20145;-79
2021/11/27 00:09:33;;;;;;;4.28;1.20;;;;;;;6.42;77.56;98521.00;5045753;28;20073;-76
2021/11/27 00:11:58;;;;;;;6.40;1.40;;;;;;;6.42;77.63;98519.28;5041261;28;20541;-77
2021/11/27 00:14:24;;;;;;;5.55;1.48;;;;;;;6.40;77.58;98517.59;5028243;28;20039;-78
2021/11/27 00:16:49;;;;;;;4.28;1.42;;;;;;;6.39;77.57;98521.91;5051962;28;20356;-77
2021/11/27 00:19:15;;;;;;;9.43;2.05;;;;;;;6.40;77.39;98523.59;5055393;28;20117;-77
2021/11/27 00:21:41;;;;;;;6.70;1.60;;;;;;;6.42;77.23;98521.00;5045278;28;20104;-76
2021/11/27 00:24:07;;;;;;;8.95;1.60;;;;;;;6.38;77.35;98514.13;5051835;28;20571;-77
2021/11/27 00:26:32;;;;;;;5.82;1.52;;;;;;;6.36;77.16;98516.72;5031074;28;20039;-77
2021/11/27 00:28:58;;;;;;;6.22;1.80;;;;;;;6.35;77.51;98511.56;5045750;28;20074;-77
2021/11/27 00:31:25;;;;;;;4.22;1.70;;;;;;;6.36;77.43;98511.56;5054741;28;20036;-77
2021/11/27 00:33:51;;;;;;;5.75;2.08;;;;;;;6.35;77.14;98507.25;5036180;28;20043;-79
2021/11/27 00:36:17;;;;;;;4.65;1.65;;;;;;;6.36;77.27;98500.34;5028288;28;20098;-77
2021/11/27 00:38:42;;;;;;;7.07;1.92;;;;;;;6.35;77.32;98502.06;5050731;28;20048;-77
2021/11/27 00:41:08;;;;;;;7.50;1.80;;;;;;;6.37;77.49;98502.94;5053403;28;20040;-77
2021/11/27 00:43:34;;;;;;;4.57;1.45;;;;;;;6.38;77.31;98496.88;5030903;28;20048;-77
2021/11/27 00:46:00;;;;;;;8.25;1.70;;;;;;;6.36;77.13;98503.78;5025779;28;20313;-78
2021/11/27 00:48:26;;;;;;;6.63;1.33;;;;;;;6.31;76.88;98500.38;5048175;28;20063;-77
2021/11/27 00:51:02;;;;;;;5.93;1.48;;;;;;;6.31;76.89;98489.19;5050751;28;20079;-77
2021/11/27 00:53:27;;;;;;;4.40;1.60;;;;;;;6.27;76.98;98500.44;5017600;28;20530;-78
2021/11/27 00:55:53;;;;;;;6.90;1.40;;;;;;;6.28;77.39;98502.16;5043233;28;20044;-77
2021/11/27 00:58:19;;;;;;;3.70;1.25;;;;;;;6.26;76.96;98498.69;5040895;28;20078;-77
2021/11/27 01:00:48;;;;;;;7.15;1.10;;;;;;;6.27;77.01;98496.13;5046675;28;20496;-77
2021/11/27 01:03:16;;;;;;;5.65;1.30;;;;;;;6.24;76.97;98496.13;5055203;28;20050;-78
2021/11/27 01:05:41;;;;;;;4.45;1.00;;;;;;;6.22;77.00;98505.59;5029875;28;20037;-78
2021/11/27 01:08:07;;;;;;;3.72;1.10;;;;;;;6.21;76.87;98497.88;5040095;28;20048;-76
2021/11/27 01:10:39;;;;;;;2.38;1.10;;;;;;;6.16;76.80;98495.31;5038170;28;21187;-78
2021/11/27 01:13:05;;;;;;;4.15;1.10;;;;;;;6.16;76.82;98495.31;5045853;28;20044;-78
2021/11/27 01:15:32;;;;;;;5.43;1.20;;;;;;;6.18;76.62;98491.00;5055109;28;20027;-78
2021/11/27 01:17:59;;;;;;;3.30;1.00;;;;;;;6.15;76.77;98490.16;5024227;28;20141;-76
2021/11/27 01:20:28;;;;;;;8.15;1.70;;;;;;;6.14;76.72;98489.31;5046140;28;20044;-77
2021/11/27 01:22:55;;;;;;;7.30;1.58;;;;;;;6.11;77.03;98487.59;5055173;28;20133;-75
2021/11/27 01:25:21;;;;;;;5.95;1.60;;;;;;;6.09;76.93;98493.66;5030310;28;20040;-78
2021/11/27 01:27:46;;;;;;;7.75;1.10;;;;;;;6.07;76.52;98490.22;5046931;28;20060;-78
2021/11/27 01:30:13;;;;;;;3.53;0.95;;;;;;;6.06;76.38;98489.34;5049744;28;20060;-77
2021/11/27 01:32:39;;;;;;;3.22;0.90;;;;;;;6.04;76.43;98491.09;5046466;28;20044;-77
2021/11/27 01:35:06;;;;;;;4.45;0.93;;;;;;;6.01;76.05;98490.25;5046292;28;20262;-77
2021/11/27 01:37:31;;;;;;;2.80;0.88;;;;;;;6.02;76.53;98497.16;5051374;28;20040;-77
2021/11/27 01:39:57;;;;;;;3.40;1.00;;;;;;;5.98;76.31;98493.72;5040348;28;20043;-77
2021/11/27 01:42:22;;;;;;;3.67;0.90;;;;;;;5.97;76.23;98501.50;5052277;28;20047;-77
2021/11/27 01:44:48;;;;;;;4.18;0.93;;;;;;;5.91;75.65;98504.97;5057976;28;20043;-77
2021/11/27 01:47:13;;;;;;;4.38;1.00;;;;;;;5.92;75.38;98504.09;5053583;28;21689;-77
2021/11/27 01:49:40;;;;;;;4.22;1.00;;;;;;;5.92;75.89;98509.25;5044404;28;20043;-77
2021/11/27 01:52:07;;;;;;;2.63;1.00;;;;;;;5.92;75.76;98509.25;5050155;28;20123;-78
2021/11/27 01:54:33;;;;;;;5.35;1.10;;;;;;;5.90;75.37;98505.84;5049757;28;20446;-78
2021/11/27 01:57:00;;;;;;;6.38;1.10;;;;;;;5.88;75.63;98517.91;5057048;28;20040;-77
2021/11/27 01:59:29;;;;;;;3.28;0.80;;;;;;;5.87;75.56;98520.47;5052602;28;20063;-77
2021/11/27 02:01:56;;;;;;;4.45;0.90;;;;;;;5.85;75.50;98517.91;5036567;28;20078;-76
2021/11/27 02:04:23;;;;;;;2.67;0.88;;;;;;;5.84;75.48;98517.91;5051414;28;20190;-77
2021/11/27 02:06:51;;;;;;;3.30;0.88;;;;;;;5.83;75.91;98523.94;5055420;28;20545;-77
2021/11/27 02:09:20;;;;;;;1.83;0.80;;;;;;;5.85;76.20;98517.06;5031776;28;20063;-79
2021/11/27 02:11:50;;;;;;;6.80;0.80;;;;;;;5.85;76.30;98523.09;5046937;28;20496;-78
2021/11/27 02:14:16;;;;;;;3.20;0.70;;;;;;;5.87;76.13;98523.06;5053812;28;20150;-77
2021/11/27 02:16:45;;;;;;;2.67;1.08;;;;;;;5.86;76.90;98518.75;5049159;28;20040;-76
2021/11/27 02:19:10;;;;;;;3.97;0.90;;;;;;;5.88;76.68;98523.09;5050888;28;20048;-76
2021/11/27 02:21:40;;;;;;;3.10;0.85;;;;;;;5.85;77.02;98527.41;5030347;28;20042;-77
2021/11/27 02:24:06;;;;;;;3.85;0.90;;;;;;;5.84;77.08;98546.34;5052119;28;20758;-78
2021/11/27 02:26:34;;;;;;;3.15;1.08;;;;;;;5.83;77.03;98544.63;5055350;28;20136;-76
2021/11/27 02:29:03;;;;;;;5.72;1.15;;;;;;;5.84;77.22;98547.22;5051152;28;20036;-77
2021/11/27 02:31:29;;;;;;;2.70;0.95;;;;;;;5.90;77.32;98543.78;5031595;28;20040;-76
2021/11/27 02:33:56;;;;;;;3.20;1.20;;;;;;;5.89;77.58;98535.16;5039759;28;20693;-77
2021/11/27 02:36:21;;;;;;;6.75;1.20;;;;;;;5.91;77.17;98535.16;5061432;28;20043;-77
2021/11/27 02:38:47;;;;;;;4.80;1.17;;;;;;;5.89;77.08;98537.75;5054720;28;20079;-78
2021/11/27 02:41:13;;;;;;;2.35;1.20;;;;;;;5.89;77.19;98534.28;5037400;28;20161;-77
2021/11/27 02:43:39;;;;;;;3.97;1.48;;;;;;;5.86;76.76;98537.69;5040726;28;20048;-77
2021/11/27 02:46:04;;;;;;;3.60;1.42;;;;;;;5.83;77.39;98531.69;5048601;28;20048;-77
2021/11/27 02:48:30;;;;;;;5.97;1.63;;;;;;;5.84;77.31;98536.88;5048888;28;20083;-76
2021/11/27 02:50:55;;;;;;;3.00;1.80;;;;;;;5.81;77.40;98538.59;5051599;28;20550;-77
2021/11/27 02:53:21;;;;;;;4.22;2.10;;;;;;;5.77;77.46;98536.91;5051584;28;20074;-76
2021/11/27 02:55:46;;;;;;;4.32;2.08;;;;;;;5.78;77.56;98541.22;5039185;28;20055;-78
2021/11/27 02:58:13;;;;;;;5.28;2.00;;;;;;;5.73;77.84;98541.25;5049773;28;20493;-77
2021/11/27 03:00:38;;;;;;;7.45;2.00;;;;;;;5.70;77.79;98549.00;5054416;28;20055;-79
2021/11/27 03:03:04;;;;;;;4.38;2.10;;;;;;;5.72;77.73;98547.28;5052514;28;20044;-78
2021/11/27 03:05:30;;;;;;;4.47;2.22;;;;;;;5.70;77.49;98549.84;5051837;28;20106;-76
2021/11/27 03:07:55;;;;;;;4.03;2.17;;;;;;;5.72;77.76;98547.28;5036797;28;20259;-79
2021/11/27 03:10:21;;;;;;;4.55;1.85;;;;;;;5.72;77.71;98553.31;5050733;28;20438;-77
2021/11/27 03:12:47;;;;;;;4.85;1.92;;;;;;;5.74;77.74;98540.34;5054097;28;20131;-77
2021/11/27 03:15:16;;;;;;;5.03;1.90;;;;;;;5.78;77.55;98552.41;5050479;28;20091;-77
2021/11/27 03:17:42;;;;;;;3.80;1.67;;;;;;;5.80;77.37;98560.13;5035332;28;20028;-70
2021/11/27 03:20:09;;;;;;;3.35;1.80;;;;;;;5.84;77.80;98560.16;5037865;28;20124;-77
2021/11/27 03:22:35;;;;;;;6.05;1.65;;;;;;;5.86;77.66;98562.69;5040891;28;20829;-77
2021/11/27 03:25:00;;;;;;;5.13;1.63;;;;;;;5.88;77.92;98559.28;5038979;28;20262;-77
2021/11/27 03:27:26;;;;;;;7.30;1.98;;;;;;;5.93;77.65;98556.66;5050970;28;20051;-77
2021/11/27 03:29:51;;;;;;;5.07;1.83;;;;;;;5.93;78.00;98560.13;5029762;28;20040;-77
2021/11/27 03:32:17;;;;;;;3.42;1.70;;;;;;;5.93;77.90;98561.84;5046192;28;20501;-77
2021/11/27 03:34:44;;;;;;;6.07;1.80;;;;;;;5.93;77.91;98557.53;5054418;28;20058;-76
2021/11/27 03:37:10;;;;;;;4.72;1.70;;;;;;;5.92;77.72;98566.16;5052528;28;20051;-79
2021/11/27 03:39:37;;;;;;;6.32;2.13;;;;;;;5.91;78.11;98573.94;5058827;28;20408;-77
2021/11/27 03:42:04;;;;;;;6.25;1.83;;;;;;;5.90;77.91;98577.38;5049060;28;20722;-77
2021/11/27 03:44:29;;;;;;;6.00;2.08;;;;;;;5.90;77.50;98572.22;5048774;28;20127;-77
2021/11/27 03:46:55;;;;;;;5.50;1.92;;;;;;;5.91;78.04;98573.94;5056970;28;20135;-77
2021/11/27 03:49:24;;;;;;;7.22;2.13;;;;;;;5.89;77.48;98580.84;5055784;28;20070;-78
2021/11/27 03:51:50;;;;;;;6.75;2.22;;;;;;;5.85;77.58;98582.56;5048260;28;21506;-77
2021/11/27 03:54:15;;;;;;;7.50;2.35;;;;;;;5.86;77.14;98583.38;5052978;28;20048;-77
2021/11/27 03:56:41;;;;;;;8.75;2.50;;;;;;;5.80;77.27;98592.03;5036627;28;20038;-77
2021/11/27 03:59:06;;;;;;;7.13;2.70;;;;;;;5.81;77.63;98590.31;5056364;28;20447;-77
2021/11/27 04:01:32;;;;;;;5.47;2.53;;;;;;;5.81;77.73;98598.94;5040450;28;20040;-79
2021/11/27 04:03:58;;;;;;;6.22;2.72;;;;;;;5.85;77.90;98599.78;5033127;28;20295;-78
2021/11/27 04:06:24;;;;;;;6.63;2.72;;;;;;;5.88;77.98;98594.63;5050722;28;20109;-79
2021/11/27 04:08:50;;;;;;;5.20;2.65;;;;;;;5.94;77.63;98602.34;5042960;28;20525;-79
2021/11/27 04:11:15;;;;;;;5.15;2.63;;;;;;;5.94;77.84;98600.63;5039046;28;20044;-77
2021/11/27 04:13:41;;;;;;;9.07;2.80;;;;;;;5.93;77.59;98605.81;5043586;28;20075;-77
2021/11/27 04:16:07;;;;;;;7.13;2.60;;;;;;;5.92;77.71;98607.53;5014145;28;20047;-78
2021/11/27 04:18:32;;;;;;;4.72;2.78;;;;;;;5.90;78.02;98609.28;5055895;28;20184;-77
2021/11/27 04:21:00;;;;;;;7.85;3.08;;;;;;;5.89;77.47;98612.72;5054721;28;20047;-78
2021/11/27 04:23:25;;;;;;;7.03;3.00;;;;;;;5.89;77.59;98617.03;5052572;28;20481;-78
2021/11/27 04:25:51;;;;;;;7.25;3.58;;;;;;;5.89;77.75;98619.63;5038184;28;20037;-78
2021/11/27 04:28:17;;;;;;;7.78;3.78;;;;;;;5.92;78.02;98615.28;5054240;28;20063;-79
2021/11/27 04:30:43;;;;;;;10.57;4.05;;;;;;;5.90;77.74;98618.75;5038051;28;20035;-77
2021/11/27 04:33:09;;;;;;;9.27;3.92;;;;;;;5.94;77.80;98617.88;5036169;28;20127;-77
2021/11/27 04:35:35;;;;;;;8.48;4.47;;;;;;;5.93;78.17;98617.00;5044886;28;20036;-77
2021/11/27 04:38:01;;;;;;;9.35;4.47;;;;;;;6.00;77.80;98625.59;5053303;28;21898;-77
2021/11/27 04:40:27;;;;;;;11.27;5.38;;;;;;;5.95;77.54;98629.94;5051603;28;20050;-76
2021/11/27 04:42:52;;;;;;;12.20;5.43;;;;;;;5.94;77.65;98629.06;5051942;28;20051;-78
2021/11/27 04:45:18;;;;;;;9.57;4.97;;;;;;;5.96;77.64;98635.13;5045506;28;20036;-79
2021/11/27 04:47:43;;;;;;;11.45;4.97;;;;;;;5.96;77.59;98640.28;5038580;28;20044;-76
2021/11/27 04:50:10;;;;;;;13.48;4.93;;;;;;;5.94;77.50;98638.56;5055848;28;23420;-76
2021/11/27 04:52:37;;;;;;;9.52;5.18;;;;;;;5.92;77.75;98648.03;5032886;28;20044;-79
2021/11/27 04:55:04;;;;;;;10.60;4.72;;;;;;;5.93;77.88;98653.22;5041090;28;20040;-77
2021/11/27 04:57:29;;;;;;;8.45;4.80;;;;;;;5.90;77.56;98654.97;5053730;28;20033;-77
2021/11/27 04:59:54;;;;;;;9.02;4.00;;;;;;;5.86;77.34;98659.22;5050075;28;20046;-78
2021/11/27 05:02:20;;;;;;;10.43;4.32;;;;;;;5.86;77.54;98661.81;5047647;28;20056;-77
2021/11/27 05:04:45;;;;;;;9.38;4.28;;;;;;;5.83;77.29;98661.84;5050831;28;20054;-77
2021/11/27 05:07:11;;;;;;;8.38;4.43;;;;;;;5.86;77.16;98663.53;5042013;28;20070;-78
2021/11/27 05:09:37;;;;;;;8.95;4.65;;;;;;;5.86;77.47;98671.31;5047812;28;20044;-77
2021/11/27 05:12:02;;;;;;;10.50;4.63;;;;;;;5.85;77.31;98675.66;5021350;28;20093;-78
2021/11/27 05:14:28;;;;;;;9.27;4.50;;;;;;;5.87;76.90;98675.59;5032772;28;20044;-77
2021/11/27 05:16:53;;;;;;;11.63;5.00;;;;;;;5.86;77.35;98677.34;5052483;28;20097;-77
2021/11/27 05:19:19;;;;;;;8.32;4.57;;;;;;;5.88;77.39;98678.22;5030351;28;20286;-77
2021/11/27 05:21:44;;;;;;;12.73;5.30;;;;;;;5.89;77.46;98681.69;5037485;28;20117;-77
2021/11/27 05:24:10;;;;;;;10.43;4.53;;;;;;;5.93;77.18;98689.41;5058614;28;20040;-77
2021/11/27 05:26:36;;;;;;;10.15;4.68;;;;;;;5.94;77.07;98687.69;5046484;28;20040;-77
2021/11/27 05:29:02;;;;;;;9.40;5.03;;;;;;;5.94;76.90;98698.03;5055165;28;20040;-78
2021/11/27 05:31:28;;;;;;;10.80;4.57;;;;;;;5.95;77.05;98702.34;5051379;28;20044;-78
2021/11/27 05:36:27;;;;;;;11.40;5.63;;;;;;;5.92;76.83;98715.28;5055791;28;20047;-78
2021/11/27 05:38:52;;;;;;;11.50;5.30;;;;;;;5.94;77.31;98710.97;5053621;28;20198;-78
2021/11/27 05:41:18;;;;;;;10.25;5.68;;;;;;;5.94;77.10;98711.84;5056774;28;20052;-77
2021/11/27 05:43:43;;;;;;;12.23;5.93;;;;;;;5.94;77.26;98718.72;5020608;28;20082;-72
2021/11/27 05:46:09;;;;;;;12.15;5.78;;;;;;;5.95;77.03;98707.53;5047201;28;20070;-77
2021/11/27 05:48:35;;;;;;;10.35;6.13;;;;;;;5.92;77.50;98710.09;5049269;28;20064;-77
2021/11/27 05:51:00;;;;;;;12.02;6.30;;;;;;;5.93;77.31;98724.75;5052228;28;20071;-77
2021/11/27 05:53:25;;;;;;;14.38;7.35;;;;;;;5.95;77.60;98728.22;5062163;28;20293;-77
2021/11/27 05:55:51;;;;;;;15.43;7.82;;;;;;;5.95;77.32;98726.50;5039445;28;20556;-77
2021/11/27 05:58:18;;;;;;;16.52;8.00;;;;;;;5.95;77.29;98733.38;5045496;28;20522;-77
2021/11/27 06:00:45;;;;;;;15.15;8.32;;;;;;;5.97;77.45;98732.53;5045283;28;20039;-76
2021/11/27 06:03:10;;;;;;;14.18;8.25;;;;;;;5.95;77.10;98741.16;5032368;28;20036;-78
2021/11/27 06:05:36;;;;;;;15.90;8.98;;;;;;;5.97;77.31;98742.00;5054874;28;20042;-77
2021/11/27 06:08:02;;;;;;;17.70;9.13;;;;;;;6.01;77.38;98749.75;5042075;28;20592;-77
2021/11/27 06:10:28;;;;;;;16.88;9.68;;;;;;;5.99;77.40;98751.47;5060138;28;20378;-77
2021/11/27 06:12:53;;;;;;;17.48;9.13;;;;;;;6.00;77.34;98754.94;5043623;28;20031;-77
2021/11/27 06:15:19;;;;;;;17.48;9.00;;;;;;;5.97;77.57;98755.81;5050641;28;20054;-77
2021/11/27 06:17:44;;;;;;;18.45;8.88;;;;;;;5.99;77.29;98761.81;5040645;28;20031;-76
2021/11/27 06:20:10;;;;;;;19.98;9.32;;;;;;;5.98;77.42;98767.84;5034670;28;20036;-78
2021/11/27 06:22:36;;;;;;;15.80;8.95;;;;;;;5.98;77.52;98773.03;5058528;28;20028;-79
2021/11/27 06:25:01;;;;;;;20.17;9.52;;;;;;;6.01;77.68;98779.94;5036389;28;20500;-77
2021/11/27 06:27:27;;;;;;;20.95;9.52;;;;;;;6.00;77.39;98781.66;5060892;28;20039;-78
2021/11/27 06:29:52;;;;;;;17.75;8.75;;;;;;;6.02;77.42;98779.94;5045162;28;20098;-78
2021/11/27 06:32:22;;;;;;;19.80;9.15;;;;;;;5.97;77.25;98786.84;5051386;28;20487;-77
2021/11/27 06:34:51;;;;;;;18.80;9.63;;;;;;;5.98;77.00;98791.13;5052214;28;20728;-78
2021/11/27 06:37:20;;;;;;;21.42;9.45;;;;;;;5.99;77.59;98789.41;5038873;28;20044;-78
2021/11/27 06:39:47;;;;;;;23.17;10.25;;;;;;;6.00;77.58;98799.75;5035502;28;20485;-78
2021/11/27 06:42:12;;;;;;;24.52;11.00;;;;;;;6.01;77.51;98801.47;5049337;28;20124;-78
2021/11/27 06:44:40;;;;;;;22.83;10.13;;;;;;;6.04;77.36;98808.34;5056511;28;20032;-78
2021/11/27 06:47:06;;;;;;;22.17;10.05;;;;;;;6.04;77.56;98808.34;5050149;28;20058;-77
2021/11/27 06:49:31;;;;;;;23.80;10.55;;;;;;;6.04;77.70;98814.41;5053668;28;20447;-78
2021/11/27 06:51:57;;;;;;;22.33;10.23;;;;;;;6.03;77.44;98810.13;5025140;28;20250;-79
2021/11/27 06:54:22;;;;;;;24.20;10.57;;;;;;;6.04;77.33;98822.16;5055966;28;20189;-77
2021/11/27 06:56:47;;;;;;;27.98;11.57;;;;;;;6.01;77.71;98826.47;5037170;28;20028;-78
2021/11/27 06:59:13;;;;;;;23.90;11.20;;;;;;;6.04;77.65;98832.50;5048482;28;20050;-78
2021/11/27 07:01:38;;;;;;;29.60;13.10;;;;;;;6.03;77.47;98848.06;5031843;28;20416;-78
2021/11/27 07:04:04;;;;;;;27.95;14.00;;;;;;;5.96;77.71;98844.59;5050011;28;20128;-77
2021/11/27 07:06:29;;;;;;;28.63;14.13;;;;;;;5.98;77.43;98845.44;5035281;28;20040;-78
2021/11/27 07:08:54;;;;;;;32.17;14.55;;;;;;;5.92;77.65;98850.63;5037619;28;20043;-77
2021/11/27 07:11:20;;;;;;;33.40;15.38;;;;;;;5.91;77.71;98848.91;5056325;28;20028;-77
2021/11/27 07:13:45;;;;;;;33.05;15.77;;;;;;;5.97;77.20;98851.50;5039574;28;20040;-78
2021/11/27 07:16:11;;;;;;;34.67;15.50;;;;;;;5.95;77.11;98848.03;5054635;28;20040;-78
2021/11/27 07:18:38;;;;;;;30.98;15.57;;;;;;;6.03;77.16;98855.81;5050026;28;20040;-77
2021/11/27 07:21:04;;;;;;;37.33;16.50;;;;;;;6.02;77.52;98864.44;5048958;28;20126;-78
2021/11/27 07:23:30;;;;;;;38.38;16.42;;;;;;;6.05;77.06;98865.28;5054695;28;20054;-80
2021/11/27 07:25:55;;;;;;;40.15;16.55;;;;;;;6.02;77.32;98867.88;5029856;28;20048;-78
2021/11/27 07:28:21;;;;;;;37.20;16.30;;;;;;;6.04;77.55;98876.47;5046874;28;20271;-79
2021/11/27 07:30:46;;;;;;;40.30;16.85;;;;;;;6.04;77.56;98881.66;5037756;28;20539;-78
2021/11/27 07:33:11;;;;;;;37.35;15.95;;;;;;;6.07;77.28;98883.38;5058622;28;20040;-78
2021/11/27 07:35:38;;;;;;;39.20;16.23;;;;;;;6.05;77.44;98885.97;5027379;28;20081;-78
2021/11/27 07:38:03;;;;;;;42.05;17.35;;;;;;;6.05;77.43;98880.78;5049784;28;20056;-80
2021/11/27 07:40:29;;;;;;;46.20;17.67;;;;;;;6.04;77.46;98892.00;5043446;28;20124;-78
2021/11/27 07:42:54;;;;;;;39.22;17.17;;;;;;;6.05;77.52;98893.72;5051402;28;20120;-79
2021/11/27 07:45:20;;;;;;;44.70;17.08;;;;;;;6.06;77.69;98897.19;5035586;28;20040;-78
2021/11/27 07:47:46;;;;;;;43.00;18.30;;;;;;;6.07;78.00;98899.78;5039654;28;20032;-77
2021/11/27 07:50:11;;;;;;;49.38;18.42;;;;;;;6.13;77.78;98910.97;5039848;28;20052;-78
2021/11/27 07:52:37;;;;;;;43.60;18.10;;;;;;;6.12;77.45;98910.13;5039572;28;20440;-77
2021/11/27 07:55:03;;;;;;;49.08;18.80;;;;;;;6.13;77.58;98923.91;5032118;28;20048;-78
2021/11/27 07:57:28;;;;;;;49.22;18.10;;;;;;;6.17;77.53;98930.81;5026515;28;20278;-79
2021/11/27 07:59:53;;;;;;;47.58;19.02;;;;;;;6.18;77.51;98932.53;5047094;28;20429;-78
2021/11/27 08:02:19;;;;;;;45.55;18.63;;;;;;;6.20;77.46;98939.44;5028046;28;20132;-78
2021/11/27 08:04:44;;;;;;;50.05;18.92;;;;;;;6.20;77.70;98943.75;5052723;28;20040;-79
2021/11/27 08:07:09;;;;;;;45.03;18.30;;;;;;;6.23;77.47;98942.00;5053028;28;20394;-78
2021/11/27 08:09:35;;;;;;;44.15;19.02;;;;;;;6.26;77.71;98946.34;5050038;28;20048;-78
2021/11/27 08:12:01;;;;;;;49.63;19.45;;;;;;;6.31;77.52;98957.53;5042926;28;20050;-78
2021/11/27 08:14:31;;;;;;;45.33;19.20;;;;;;;6.33;77.64;98948.06;5046638;28;20489;-77
2021/11/27 08:17:00;;;;;;;53.42;20.40;;;;;;;6.37;77.80;98952.38;5051345;28;20054;-78
2021/11/27 08:19:27;;;;;;;50.33;19.50;;;;;;;6.38;77.74;98949.78;5051439;28;20036;-80
2021/11/27 08:21:52;;;;;;;51.63;19.80;;;;;;;6.42;77.55;98956.66;5046387;28;20047;-78
2021/11/27 08:24:18;;;;;;;44.75;18.17;;;;;;;6.45;77.84;98963.59;5046264;28;20075;-78
2021/11/27 08:26:43;;;;;;;47.75;19.90;;;;;;;6.47;77.71;98959.25;5043002;28;20828;-78
2021/11/27 08:29:08;;;;;;;45.28;18.83;;;;;;;6.48;77.14;98961.84;5034709;28;20737;-80
2021/11/27 08:31:34;;;;;;;51.50;19.92;;;;;;;6.47;77.43;98965.28;5032224;28;20119;-78
2021/11/27 08:33:59;;;;;;;49.80;19.15;;;;;;;6.47;77.24;98970.47;5038562;28;20366;-78
2021/11/27 08:36:25;;;;;;;46.15;19.38;;;;;;;6.48;77.21;98971.34;5027456;28;20898;-78
2021/11/27 08:38:50;;;;;;;45.83;19.88;;;;;;;6.47;77.33;98975.66;5044221;28;21027;-78
2021/11/27 08:41:15;;;;;;;51.03;20.73;;;;;;;6.48;76.92;98985.16;5053316;28;20492;-78
2021/11/27 08:43:41;;;;;;;48.22;20.33;;;;;;;6.48;77.19;98992.03;5036806;28;20040;-78
2021/11/27 08:46:06;;;;;;;40.78;18.58;;;;;;;6.60;76.70;98993.75;5052717;28;20079;-78
2021/11/27 08:48:36;;;;;;;47.83;20.38;;;;;;;6.48;76.87;98994.63;5026156;28;20268;-78
2021/11/27 08:51:03;;;;;;;46.88;20.25;;;;;;;6.49;76.83;98999.81;5046076;28;20079;-78
2021/11/27 08:53:29;;;;;;;45.70;19.63;;;;;;;6.47;76.81;99009.28;5051874;28;20869;-77
2021/11/27 08:55:54;;;;;;;44.08;19.38;;;;;;;6.45;76.75;99000.69;5037727;28;20041;-78
2021/11/27 08:58:20;;;;;;;47.80;19.20;;;;;;;6.46;76.74;99004.16;5030433;28;20097;-77
2021/11/27 09:00:48;;;;;;;42.55;19.00;;;;;;;6.44;76.53;99009.31;5047410;28;20035;-78
2021/11/27 09:03:13;;;;;;;51.15;19.80;;;;;;;6.41;76.75;99011.88;5040259;28;20086;-77
2021/11/27 09:05:39;;;;;;;46.17;20.10;;;;;;;6.43;76.85;99011.91;5046505;28;20122;-79
2021/11/27 09:08:05;;;;;;;44.78;19.10;;;;;;;6.44;76.66;99017.09;5042349;28;20493;-77
2021/11/27 09:10:30;;;;;;;44.70;19.13;;;;;;;6.45;77.49;99007.59;5032123;28;20044;-78
2021/11/27 09:12:56;;;;;;;45.90;20.38;;;;;;;6.48;77.16;99005.84;5048368;28;20040;-77
2021/11/27 09:15:21;;;;;;;45.00;20.30;;;;;;;6.48;77.23;99013.63;5052679;28;20557;-78
2021/11/27 09:17:48;;;;;;;46.35;20.02;;;;;;;6.51;77.14;99023.13;5034038;28;20424;-78
2021/11/27 09:20:14;;;;;;;46.90;20.10;;;;;;;6.56;77.27;99020.53;5051199;28;20139;-78
2021/11/27 09:22:40;;;;;;;47.45;19.55;;;;;;;6.57;77.30;99020.53;5051003;28;20157;-79
2021/11/27 09:25:06;;;;;;;42.75;18.80;;;;;;;6.63;76.82;99019.66;5038917;28;20059;-78
2021/11/27 09:27:31;;;;;;;41.92;19.25;;;;;;;6.61;77.11;99029.16;5052897;28;20032;-78
2021/11/27 09:29:57;;;;;;;44.25;19.27;;;;;;;6.60;76.89;99023.09;5024135;28;20572;-78
2021/11/27 09:32:23;;;;;;;42.75;18.33;;;;;;;6.58;76.79;99026.56;5053073;28;20363;-77
2021/11/27 09:34:49;;;;;;;43.95;18.63;;;;;;;6.60;76.82;99036.06;5039834;28;20219;-77
2021/11/27 09:37:17;;;;;;;41.33;18.48;;;;;;;6.63;76.63;99030.88;5012099;28;20048;-78
2021/11/27 09:39:43;;;;;;;43.60;18.50;;;;;;;6.59;76.47;99029.13;5035702;28;20674;-76
2021/11/27 09:42:16;;;;;;;44.15;18.98;;;;;;;6.60;76.50;99030.00;5044893;28;20135;-77
2021/11/27 09:44:52;;;;;;;48.72;19.55;;;;;;;6.65;76.76;99029.13;5023727;28;20182;-77
2021/11/27 09:47:18;;;;;;;44.25;18.70;;;;;;;6.71;76.40;99026.53;5047117;28;20044;-76
2021/11/27 09:49:45;;;;;;;41.25;18.42;;;;;;;6.73;75.93;99029.16;5042914;28;20955;-77
2021/11/27 09:52:11;;;;;;;40.15;17.52;;;;;;;6.75;75.80;99041.25;5046323;28;20209;-76
2021/11/27 09:54:37;;;;;;;45.00;17.88;;;;;;;6.73;75.56;99044.69;5023978;28;20117;-77
2021/11/27 09:57:06;;;;;;;40.38;17.55;;;;;;;6.79;76.06;99053.31;5053406;28;20032;-79
2021/11/27 09:59:32;;;;;;;43.95;18.23;;;;;;;6.79;75.80;99047.25;5045291;28;20468;-78
2021/11/27 10:01:59;;;;;;;41.67;18.35;;;;;;;6.85;75.57;99047.25;5028241;28;20449;-77
2021/11/27 10:04:28;;;;;;;41.72;18.75;;;;;;;6.93;75.63;99040.34;5028000;28;20036;-77
2021/11/27 10:06:57;;;;;;;44.47;19.83;;;;;;;6.95;75.94;99030.88;5043153;28;20040;-79
2021/11/27 10:09:23;;;;;;;44.65;19.42;;;;;;;6.99;75.20;99037.75;5015111;28;20132;-78
2021/11/27 10:11:50;;;;;;;46.55;19.30;;;;;;;7.06;75.65;99031.69;5018284;28;20123;-76
2021/11/27 10:14:16;;;;;;;47.05;20.23;;;;;;;7.18;74.95;99036.00;5049925;28;20620;-76
2021/11/27 10:16:57;;;;;;;40.70;18.15;;;;;;;7.24;74.72;99031.66;5048427;28;20075;-76
2021/11/27 10:19:23;;;;;;;46.60;18.83;;;;;;;7.37;74.60;99029.03;5056402;28;20045;-76
2021/11/27 10:21:57;;;;;;;43.55;19.05;;;;;;;7.47;74.73;99034.16;5045487;28;20036;-77
2021/11/27 10:24:25;;;;;;;38.60;18.88;;;;;;;7.77;74.95;99033.19;5034288;28;20552;-76
2021/11/27 10:26:54;;;;;;;41.65;17.60;;;;;;;8.05;74.27;99028.72;5028179;28;20036;-76
2021/11/27 10:29:26;;;;;;;37.33;16.25;;;;;;;8.20;73.53;99027.75;5034726;28;20039;-77
2021/11/27 10:32:15;;;;;;;30.00;15.32;;;;;;;8.36;72.21;99026.78;5039021;28;20040;-78
2021/11/27 10:34:50;;;;;;;30.50;14.63;;;;;;;8.53;72.04;99032.75;5027275;28;20075;-76
2021/11/27 10:37:26;;;;;;;28.58;14.57;;;;;;;8.52;71.48;99034.47;5045752;28;20531;-76
2021/11/27 10:40:06;;;;;;;33.70;14.13;;;;;;;8.41;71.37;99027.63;5040067;28;20065;-76
2021/11/27 10:42:33;;;;;;;25.95;12.23;;;;;;;8.23;71.00;99028.59;5054007;28;20122;-76
2021/11/27 10:45:29;;;;;;;23.27;11.15;;;;;;;7.96;70.98;99040.00;5052572;28;20124;-76
2021/11/27 10:48:11;;;;;;;29.50;11.20;;;;;;;7.85;71.93;99027.97;5021547;28;20380;-76
2021/11/27 10:50:41;;;;;;;29.17;11.93;;;;;;;7.74;72.58;99033.22;5052823;28;20040;-76
2021/11/27 10:53:15;;;;;;;24.48;10.75;;;;;;;7.61;72.67;99034.13;5056874;28;20047;-77
2021/11/27 10:55:41;;;;;;;22.67;9.52;;;;;;;7.43;72.75;99041.97;5047953;28;20443;-76
2021/11/27 10:58:08;;;;;;;18.63;7.20;;;;;;;7.38;72.45;99035.94;5047824;28;20048;-78
2021/11/27 11:00:43;;;;;;;15.07;5.90;;;;;;;7.24;72.21;99036.84;5058866;28;20062;-77
2021/11/27 11:03:23;;;;;;;;;;;;;;;7.03;72.33;99039.47;5059639;28;20093;-77
2021/11/27 11:05:49;;;;;;;12.32;3.28;;;;;;;6.81;71.86;99025.69;5044440;28;20350;-76
2021/11/27 11:08:14;;;;;;;15.68;3.65;;;;;;;6.63;71.82;99036.06;5059801;28;20051;-76
2021/11/27 11:10:40;;;;;;;13.18;3.42;;;;;;;6.56;71.98;99030.88;5036077;28;20052;-74
2021/11/27 11:13:07;;;;;;;16.10;3.42;;;;;;;6.51;72.69;99030.88;5030674;28;20064;-76
2021/11/27 11:15:42;;;;;;;10.60;3.28;;;;;;;6.31;72.49;99030.88;5036378;28;20837;-75
2021/11/27 11:18:19;;;;;;;18.30;3.47;;;;;;;6.33;72.73;99025.72;5031813;28;20149;-76
2021/11/27 11:20:50;;;;;;;12.95;3.83;;;;;;;6.32;73.33;99031.75;5056436;28;20388;-76
2021/11/27 11:23:20;;;;;;;15.45;3.60;;;;;;;6.27;73.57;99026.56;5051505;28;20535;-76
2021/11/27 11:26:06;;;;;;;12.23;3.97;;;;;;;6.25;73.56;99028.28;5045255;28;20032;-72
2021/11/27 11:28:47;;;;;;;11.55;3.63;;;;;;;6.24;74.05;99034.31;5035157;28;20047;-76
2021/11/27 11:31:16;;;;;;;13.30;3.50;;;;;;;6.30;74.67;99031.72;5048117;28;20058;-76
2021/11/27 11:33:55;;;;;;;12.48;3.45;;;;;;;6.31;74.56;99024.84;5032401;28;20043;-76
2021/11/27 11:36:22;;;;;;;9.40;2.95;;;;;;;6.35;74.11;99029.13;5038244;28;20043;-75